Terminal Aerodrome Forecast
Issued by NWS Billings, MT

Home | Current Version | Previous Version | Graphics & Text | Print | Product List | Glossary Off
Versions: 1 2 3 4 5 6 7 8 9 10 11 12 13 14 15 16 17 18 19 20 21 22 23 24

689
FTUS45 KBYZ 192336
TAFMLS
TAF
KMLS 192336Z 2000/2024 30010KT P6SM VCSH SCT080 BKN150
      TEMPO 2000/2004 30015G25KT 3SM -SHRASN SCT040 BKN080
     FM200400 30010KT P6SM -SHRASN SCT040 BKN100
     FM200900 VRB05KT P6SM SCT100 BKN200
     FM201800 27015G22KT P6SM FEW050 SCT200=

USA.gov is the U.S. government's official web portal to all federal, state and local government web resources and services.